createdAt,value
2017-03-13T00:00:28.406Z,0
2017-03-13T00:01:42.243Z,0
2017-03-13T00:02:55.961Z,0
2017-03-13T00:04:09.839Z,0
2017-03-13T00:05:23.733Z,0
2017-03-13T00:06:37.080Z,0
2017-03-13T00:07:50.837Z,0
2017-03-13T00:09:04.572Z,0
2017-03-13T00:10:18.112Z,0
2017-03-13T00:11:31.406Z,0
2017-03-13T00:12:45.174Z,0
2017-03-13T00:13:58.287Z,0
2017-03-13T00:15:12.088Z,0
2017-03-13T00:16:26.291Z,0
2017-03-13T00:17:40.172Z,0
2017-03-13T00:18:53.890Z,0
2017-03-13T00:20:07.831Z,0
2017-03-13T00:21:21.838Z,0
2017-03-13T00:22:35.858Z,0
2017-03-13T00:23:49.979Z,0
2017-03-13T00:25:03.737Z,0
2017-03-13T00:26:16.863Z,0
2017-03-13T00:27:30.069Z,0
2017-03-13T00:28:44.507Z,0
2017-03-13T00:29:58.865Z,0
2017-03-13T00:31:13.284Z,0
2017-03-13T00:32:27.661Z,0
2017-03-13T00:33:42.029Z,0
2017-03-13T00:34:56.428Z,0
2017-03-13T00:36:10.814Z,0
2017-03-13T00:37:24.558Z,0
2017-03-13T00:38:38.884Z,0
2017-03-13T00:39:53.237Z,0
2017-03-13T00:41:06.988Z,0
2017-03-13T00:42:20.751Z,0
2017-03-13T00:43:34.542Z,0
2017-03-13T00:44:48.905Z,0
2017-03-13T00:46:03.320Z,0
2017-03-13T00:47:17.731Z,0
2017-03-13T00:48:32.101Z,0
2017-03-13T00:49:46.502Z,0
2017-03-13T00:51:00.891Z,0
2017-03-13T00:52:14.604Z,0
2017-03-13T00:53:29.061Z,0
2017-03-13T00:54:43.430Z,0
2017-03-13T00:55:57.232Z,0
2017-03-13T00:57:10.984Z,0
2017-03-13T00:58:24.695Z,0
2017-03-13T00:59:39.103Z,0
2017-03-13T01:00:53.573Z,0
2017-03-13T01:02:08.023Z,0
2017-03-13T01:03:22.015Z,0
2017-03-13T01:04:36.389Z,0
2017-03-13T01:05:50.797Z,0
2017-03-13T01:07:05.167Z,0
2017-03-13T01:08:19.556Z,0
2017-03-13T01:09:33.924Z,0
2017-03-13T01:10:48.341Z,0
2017-03-13T01:12:02.743Z,0
2017-03-13T01:13:17.128Z,0
2017-03-13T01:14:31.531Z,0
2017-03-13T01:15:45.884Z,0
2017-03-13T01:17:00.249Z,0
2017-03-13T01:18:14.619Z,0
2017-03-13T01:19:29.095Z,0
2017-03-13T01:20:43.025Z,0
2017-03-13T01:21:57.418Z,0
2017-03-13T01:23:11.800Z,0
2017-03-13T01:24:26.192Z,0
2017-03-13T01:25:40.550Z,0
2017-03-13T01:26:54.938Z,0
2017-03-13T01:28:08.726Z,0
2017-03-13T01:29:22.517Z,0
2017-03-13T01:30:36.868Z,0
2017-03-13T01:31:51.203Z,0
2017-03-13T01:33:05.615Z,0
2017-03-13T01:34:19.382Z,0
2017-03-13T01:35:33.753Z,0
2017-03-13T01:36:48.164Z,0
2017-03-13T01:38:02.514Z,0
2017-03-13T01:39:17.085Z,0
2017-03-13T01:40:31.501Z,0
2017-03-13T01:41:45.888Z,0
2017-03-13T01:42:59.592Z,0
2017-03-13T01:44:14.138Z,0
2017-03-13T01:45:27.221Z,0
2017-03-13T01:46:41.612Z,0
2017-03-13T01:47:54.741Z,0
2017-03-13T01:49:09.164Z,0
2017-03-13T01:50:23.565Z,0
2017-03-13T01:51:37.289Z,0
2017-03-13T01:52:51.656Z,0
2017-03-13T01:54:06.074Z,0
2017-03-13T01:55:20.455Z,0
2017-03-13T01:56:34.869Z,0
2017-03-13T01:57:49.307Z,0
2017-03-13T01:59:03.731Z,0
2017-03-13T02:00:18.140Z,0
2017-03-13T02:01:32.527Z,0
2017-03-13T02:02:46.251Z,0
2017-03-13T02:04:00.678Z,0
2017-03-13T02:05:14.432Z,0
2017-03-13T02:06:28.890Z,0
2017-03-13T02:07:42.624Z,0
2017-03-13T02:08:57.468Z,0
2017-03-13T02:10:11.270Z,0
2017-03-13T02:11:25.659Z,0
2017-03-13T02:12:40.079Z,0
2017-03-13T02:13:54.470Z,0
2017-03-13T02:15:08.925Z,0
2017-03-13T02:16:22.857Z,0
2017-03-13T02:17:37.254Z,0
2017-03-13T02:18:51.065Z,0
2017-03-13T02:20:05.438Z,0
2017-03-13T02:21:19.223Z,0
2017-03-13T02:22:32.983Z,0
2017-03-13T02:23:47.413Z,0
2017-03-13T02:25:01.850Z,0
2017-03-13T02:26:16.256Z,0
2017-03-13T02:27:30.644Z,0
2017-03-13T02:28:45.037Z,0
2017-03-13T02:29:59.388Z,0
2017-03-13T02:31:13.168Z,0
2017-03-13T02:32:27.655Z,0
2017-03-13T02:33:42.290Z,0
2017-03-13T02:34:55.985Z,0
2017-03-13T02:36:09.750Z,0
2017-03-13T02:37:24.153Z,0
2017-03-13T02:38:38.549Z,0
2017-03-13T02:39:52.926Z,0
2017-03-13T02:41:07.286Z,0
2017-03-13T02:42:21.067Z,0
2017-03-13T02:43:35.478Z,0
2017-03-13T02:44:49.834Z,0
2017-03-13T02:46:04.220Z,0
2017-03-13T02:47:17.978Z,0
2017-03-13T02:48:32.392Z,0
2017-03-13T02:49:46.810Z,0
2017-03-13T02:51:01.208Z,0
2017-03-13T02:52:15.644Z,0
2017-03-13T02:53:30.064Z,0
2017-03-13T02:54:44.486Z,0
2017-03-13T02:55:58.840Z,0
2017-03-13T02:57:13.243Z,0
2017-03-13T02:58:27.668Z,0
2017-03-13T02:59:42.068Z,0
2017-03-13T03:00:56.494Z,0
2017-03-13T03:02:10.907Z,0
2017-03-13T03:03:24.679Z,0
2017-03-13T03:04:38.405Z,0
2017-03-13T03:05:52.792Z,0
2017-03-13T03:07:07.229Z,0
2017-03-13T03:08:21.637Z,0
2017-03-13T03:09:36.044Z,0
2017-03-13T03:10:49.810Z,0
2017-03-13T03:12:04.221Z,0
2017-03-13T03:13:17.974Z,0
2017-03-13T03:14:31.751Z,0
2017-03-13T03:15:46.177Z,0
2017-03-13T03:16:59.965Z,0
2017-03-13T03:18:13.713Z,0
2017-03-13T03:19:28.130Z,0
2017-03-13T03:20:43.000Z,0
2017-03-13T03:21:57.364Z,0
2017-03-13T03:23:11.803Z,0
2017-03-13T03:24:26.185Z,0
2017-03-13T03:25:40.607Z,0
2017-03-13T03:26:55.012Z,0
2017-03-13T03:28:09.437Z,0
2017-03-13T03:29:23.901Z,0
2017-03-13T03:30:38.337Z,0
2017-03-13T03:31:52.759Z,0
2017-03-13T03:33:07.156Z,0
2017-03-13T03:34:21.571Z,0
2017-03-13T03:35:36.033Z,0
2017-03-13T03:36:50.473Z,0
2017-03-13T03:38:04.882Z,0
2017-03-13T03:39:19.290Z,0
2017-03-13T03:40:33.649Z,0
2017-03-13T03:41:46.754Z,0
2017-03-13T03:43:01.186Z,0
2017-03-13T03:44:15.625Z,0
2017-03-13T03:45:30.075Z,0
2017-03-13T03:46:43.895Z,0
2017-03-13T03:47:58.496Z,0
2017-03-13T03:49:12.255Z,0
2017-03-13T03:50:26.674Z,0
2017-03-13T03:51:40.397Z,0
2017-03-13T03:52:54.813Z,0
2017-03-13T03:54:09.257Z,0
2017-03-13T03:55:23.694Z,0
2017-03-13T03:56:37.460Z,0
2017-03-13T03:57:51.872Z,0
2017-03-13T03:59:06.277Z,0
2017-03-13T04:00:20.731Z,0
2017-03-13T04:01:35.133Z,0
2017-03-13T04:02:48.888Z,0
2017-03-13T04:04:02.632Z,0
2017-03-13T04:05:17.044Z,0
2017-03-13T04:06:31.463Z,0
2017-03-13T04:07:45.867Z,0
2017-03-13T04:09:00.247Z,0
2017-03-13T04:10:14.661Z,0
2017-03-13T04:11:27.785Z,0
2017-03-13T04:12:42.162Z,0
2017-03-13T04:13:56.575Z,0
2017-03-13T04:15:11.026Z,0
2017-03-13T04:16:25.468Z,0
2017-03-13T04:17:39.879Z,0
2017-03-13T04:18:54.259Z,0
2017-03-13T04:20:08.653Z,0
2017-03-13T04:21:22.494Z,0
2017-03-13T04:22:36.852Z,0
2017-03-13T04:23:51.231Z,0
2017-03-13T04:25:05.618Z,0
2017-03-13T04:26:20.006Z,0
2017-03-13T04:27:34.454Z,0
2017-03-13T04:28:48.857Z,0
2017-03-13T04:30:01.915Z,0
2017-03-13T04:31:16.324Z,0
2017-03-13T04:32:30.720Z,0
2017-03-13T04:33:45.125Z,0
2017-03-13T04:34:59.514Z,0
2017-03-13T04:36:13.909Z,0
2017-03-13T04:37:28.286Z,0
2017-03-13T04:38:42.700Z,0
2017-03-13T04:39:57.170Z,0
2017-03-13T04:41:12.080Z,0
2017-03-13T04:42:25.877Z,0
2017-03-13T04:43:39.634Z,0
2017-03-13T04:44:54.015Z,0
2017-03-13T04:46:08.389Z,0
2017-03-13T04:47:22.160Z,0
2017-03-13T04:48:36.669Z,0
2017-03-13T04:49:51.076Z,0
2017-03-13T04:51:04.870Z,0
2017-03-13T04:52:18.644Z,0
2017-03-13T04:53:33.039Z,0
2017-03-13T04:54:46.837Z,0
2017-03-13T04:56:01.201Z,0
2017-03-13T04:57:14.955Z,0
2017-03-13T04:58:29.375Z,0
2017-03-13T04:59:43.743Z,0
2017-03-13T05:00:58.112Z,0
2017-03-13T05:02:12.454Z,0
2017-03-13T05:03:26.161Z,0
2017-03-13T05:04:40.566Z,0
2017-03-13T05:05:54.939Z,0
2017-03-13T05:07:09.375Z,0
2017-03-13T05:08:23.806Z,0
2017-03-13T05:09:37.549Z,0
2017-03-13T05:10:51.329Z,0
2017-03-13T05:12:05.777Z,0
2017-03-13T05:13:20.206Z,0
2017-03-13T05:14:34.555Z,0
2017-03-13T05:15:48.236Z,0
2017-03-13T05:17:02.644Z,0
2017-03-13T05:18:17.039Z,0
2017-03-13T05:19:31.438Z,0
2017-03-13T05:20:45.844Z,0
2017-03-13T05:22:00.250Z,0
2017-03-13T05:23:14.621Z,0
2017-03-13T05:24:29.024Z,0
2017-03-13T05:25:43.368Z,0
2017-03-13T05:26:57.933Z,0
2017-03-13T05:28:11.587Z,0
2017-03-13T05:29:25.957Z,0
2017-03-13T05:30:40.197Z,0
2017-03-13T05:31:54.534Z,0
2017-03-13T05:33:08.902Z,0
2017-03-13T05:34:23.312Z,0
2017-03-13T05:35:35.825Z,0
2017-03-13T05:36:49.314Z,0
2017-03-13T05:38:02.609Z,0
2017-03-13T05:39:16.824Z,0
2017-03-13T05:40:30.492Z,0
2017-03-13T05:41:44.289Z,0
2017-03-13T05:42:57.991Z,0
2017-03-13T05:44:12.061Z,0
2017-03-13T05:45:26.000Z,0
2017-03-13T05:46:39.836Z,0
2017-03-13T05:47:53.527Z,0
2017-03-13T05:49:07.220Z,0
2017-03-13T05:50:20.674Z,0
2017-03-13T05:51:34.519Z,0
2017-03-13T05:52:48.190Z,0
2017-03-13T05:54:01.879Z,0
2017-03-13T05:55:15.640Z,0
2017-03-13T05:56:29.476Z,0
2017-03-13T05:57:43.213Z,0
2017-03-13T05:58:56.922Z,0
2017-03-13T06:00:10.636Z,0
2017-03-13T06:01:23.782Z,0
2017-03-13T06:02:37.514Z,0
2017-03-13T06:03:51.237Z,0
2017-03-13T06:05:04.927Z,0
2017-03-13T06:06:17.530Z,0
2017-03-13T06:07:30.723Z,0
2017-03-13T06:08:44.417Z,0
2017-03-13T06:09:58.126Z,0
2017-03-13T06:11:11.885Z,0
2017-03-13T06:12:24.974Z,0
2017-03-13T06:13:38.072Z,0
2017-03-13T06:14:51.775Z,0
2017-03-13T06:16:05.467Z,0
2017-03-13T06:17:19.165Z,0
2017-03-13T06:18:32.313Z,0
2017-03-13T06:19:46.019Z,0
2017-03-13T06:20:59.729Z,0
2017-03-13T06:22:13.407Z,0
2017-03-13T06:23:27.103Z,0
2017-03-13T06:24:40.828Z,0
2017-03-13T06:25:54.547Z,0
2017-03-13T06:27:08.228Z,0
2017-03-13T06:28:21.396Z,0
2017-03-13T06:29:35.120Z,0
2017-03-13T06:30:48.232Z,0
2017-03-13T06:32:01.334Z,0
2017-03-13T06:33:15.111Z,0
2017-03-13T06:34:28.865Z,0
2017-03-13T06:35:42.544Z,0
2017-03-13T06:36:56.235Z,0
2017-03-13T06:38:09.952Z,0
2017-03-13T06:39:23.091Z,0
2017-03-13T06:40:36.783Z,0
2017-03-13T06:41:50.508Z,0
2017-03-13T06:43:04.222Z,0
2017-03-13T06:44:17.902Z,0
2017-03-13T06:45:31.624Z,0
2017-03-13T06:46:45.337Z,0
2017-03-13T06:47:58.441Z,0
2017-03-13T06:49:12.141Z,0
2017-03-13T06:50:25.889Z,0
2017-03-13T06:51:39.636Z,0
2017-03-13T06:52:53.335Z,0
2017-03-13T06:54:07.034Z,0
2017-03-13T06:55:20.709Z,0
2017-03-13T06:56:33.793Z,0
2017-03-13T06:57:46.868Z,0
2017-03-13T06:59:00.617Z,0
2017-03-13T07:00:13.780Z,0
2017-03-13T07:01:27.522Z,0
2017-03-13T07:02:40.631Z,0
2017-03-13T07:03:54.343Z,0
2017-03-13T07:05:08.027Z,0
2017-03-13T07:06:21.729Z,0
2017-03-13T07:07:34.809Z,0
2017-03-13T07:08:48.517Z,0
2017-03-13T07:10:02.216Z,0
2017-03-13T07:11:15.905Z,0
2017-03-13T07:12:29.011Z,0
2017-03-13T07:13:42.695Z,0
2017-03-13T07:14:56.402Z,0
2017-03-13T07:16:10.099Z,0
2017-03-13T07:17:23.828Z,0
2017-03-13T07:18:37.543Z,0
2017-03-13T07:19:51.271Z,0
2017-03-13T07:21:04.973Z,0
2017-03-13T07:22:18.681Z,0
2017-03-13T07:23:32.369Z,0
2017-03-13T07:24:46.102Z,0
2017-03-13T07:25:59.206Z,0
2017-03-13T07:27:12.281Z,0
2017-03-13T07:28:25.384Z,0
2017-03-13T07:29:37.902Z,0
2017-03-13T07:30:51.035Z,0
2017-03-13T07:32:04.752Z,0
2017-03-13T07:33:18.435Z,0
2017-03-13T07:34:32.134Z,0
2017-03-13T07:35:45.835Z,0
2017-03-13T07:36:59.550Z,0
2017-03-13T07:38:13.275Z,0
2017-03-13T07:39:27.008Z,0
2017-03-13T07:40:40.709Z,0
2017-03-13T07:41:54.401Z,0
2017-03-13T07:43:08.100Z,0
2017-03-13T07:44:21.246Z,0
2017-03-13T07:45:34.954Z,0
2017-03-13T07:46:48.639Z,0
2017-03-13T07:48:01.743Z,0
2017-03-13T07:49:15.454Z,0
2017-03-13T07:50:29.155Z,0
2017-03-13T07:51:42.239Z,0
2017-03-13T07:52:55.945Z,0
2017-03-13T07:54:09.685Z,0
2017-03-13T07:55:22.779Z,0
2017-03-13T07:56:36.489Z,0
2017-03-13T07:57:49.588Z,0
2017-03-13T07:59:03.326Z,0
2017-03-13T08:00:16.446Z,0
2017-03-13T08:01:30.167Z,0
2017-03-13T08:02:43.879Z,0
2017-03-13T08:03:57.540Z,0
2017-03-13T08:05:11.229Z,0
2017-03-13T08:06:24.929Z,0
2017-03-13T08:07:37.445Z,0
2017-03-13T08:08:51.141Z,0
2017-03-13T08:10:04.849Z,0
2017-03-13T08:11:18.597Z,0
2017-03-13T08:12:31.087Z,0
2017-03-13T08:13:44.813Z,0
2017-03-13T08:14:58.508Z,0
2017-03-13T08:16:12.205Z,0
2017-03-13T08:17:25.304Z,0
2017-03-13T08:18:38.994Z,0
2017-03-13T08:19:52.695Z,0
2017-03-13T08:21:06.393Z,0
2017-03-13T08:22:20.139Z,0
2017-03-13T08:23:33.845Z,0
2017-03-13T08:24:47.588Z,0
2017-03-13T08:26:00.707Z,0
2017-03-13T08:27:13.834Z,0
2017-03-13T08:28:27.569Z,0
2017-03-13T08:29:41.280Z,0
2017-03-13T08:30:54.952Z,0
2017-03-13T08:32:08.647Z,0
2017-03-13T08:33:22.377Z,0
2017-03-13T08:34:34.311Z,0
2017-03-13T08:35:48.055Z,0
2017-03-13T08:37:01.782Z,0
2017-03-13T08:38:14.869Z,0
2017-03-13T08:39:27.985Z,0
2017-03-13T08:40:41.709Z,4
2017-03-13T08:41:54.817Z,4
2017-03-13T08:43:08.549Z,0
2017-03-13T08:44:21.666Z,0
2017-03-13T08:45:34.807Z,0
2017-03-13T08:46:47.373Z,4
2017-03-13T08:48:01.088Z,4
2017-03-13T08:49:14.795Z,4
2017-03-13T08:50:28.488Z,4
2017-03-13T08:51:42.178Z,4
2017-03-13T08:52:55.927Z,12
2017-03-13T08:54:09.622Z,16
2017-03-13T08:55:23.315Z,24
2017-03-13T08:56:37.018Z,32
2017-03-13T08:57:50.713Z,36
2017-03-13T08:59:04.452Z,44
2017-03-13T09:00:18.199Z,48
2017-03-13T09:01:31.326Z,68
2017-03-13T09:02:45.057Z,100
2017-03-13T09:03:58.187Z,136
2017-03-13T09:05:11.892Z,172
2017-03-13T09:06:24.978Z,220
2017-03-13T09:07:38.670Z,260
2017-03-13T09:08:51.782Z,308
2017-03-13T09:10:05.444Z,380
2017-03-13T09:11:19.145Z,448
2017-03-13T09:12:32.838Z,516
2017-03-13T09:13:46.575Z,572
2017-03-13T09:15:00.250Z,580
2017-03-13T09:16:13.972Z,600
2017-03-13T09:17:27.666Z,632
2017-03-13T09:18:41.386Z,680
2017-03-13T09:19:54.513Z,748
2017-03-13T09:21:08.201Z,796
2017-03-13T09:22:21.911Z,796
2017-03-13T09:23:35.036Z,800
2017-03-13T09:24:48.748Z,836
2017-03-13T09:26:01.888Z,876
2017-03-13T09:27:15.605Z,772
2017-03-13T09:28:29.322Z,620
2017-03-13T09:29:42.446Z,548
2017-03-13T09:30:54.950Z,568
2017-03-13T09:32:07.463Z,696
2017-03-13T09:33:20.578Z,804
2017-03-13T09:34:34.325Z,928
2017-03-13T09:35:48.031Z,1176
2017-03-13T09:37:01.731Z,1420
2017-03-13T09:38:15.437Z,1712
2017-03-13T09:39:28.567Z,1920
2017-03-13T09:40:42.266Z,2124
2017-03-13T09:41:55.949Z,2272
2017-03-13T09:43:09.691Z,2340
2017-03-13T09:44:23.384Z,2396
2017-03-13T09:45:37.075Z,2416
2017-03-13T09:46:50.760Z,2180
2017-03-13T09:48:03.885Z,1704
2017-03-13T09:49:17.613Z,1224
2017-03-13T09:50:30.710Z,1044
2017-03-13T09:51:44.442Z,884
2017-03-13T09:52:57.562Z,792
2017-03-13T09:54:11.248Z,744
2017-03-13T09:55:24.953Z,708
2017-03-13T09:56:38.099Z,704
2017-03-13T09:57:51.204Z,784
2017-03-13T09:59:03.694Z,820
2017-03-13T10:00:16.831Z,784
2017-03-13T10:01:30.537Z,736
2017-03-13T10:02:44.260Z,704
2017-03-13T10:03:57.930Z,700
2017-03-13T10:05:11.649Z,692
2017-03-13T10:06:25.367Z,692
2017-03-13T10:07:39.089Z,736
2017-03-13T10:08:52.785Z,780
2017-03-13T10:10:05.912Z,820
2017-03-13T10:11:19.633Z,948
2017-03-13T10:12:32.145Z,1148
2017-03-13T10:13:45.890Z,1352
2017-03-13T10:14:59.593Z,1420
2017-03-13T10:16:12.681Z,1508
2017-03-13T10:17:25.789Z,1692
2017-03-13T10:18:39.541Z,1704
2017-03-13T10:19:53.230Z,1716
2017-03-13T10:21:06.954Z,1748
2017-03-13T10:22:20.061Z,1880
2017-03-13T10:23:33.769Z,2020
2017-03-13T10:24:46.266Z,2080
2017-03-13T10:25:59.950Z,2028
2017-03-13T10:27:13.109Z,1872
2017-03-13T10:28:26.827Z,1712
2017-03-13T10:29:39.920Z,1584
2017-03-13T10:30:53.635Z,1484
2017-03-13T10:32:06.755Z,1460
2017-03-13T10:33:20.447Z,1452
2017-03-13T10:34:33.564Z,1432
2017-03-13T10:35:47.257Z,1456
2017-03-13T10:37:00.389Z,1560
2017-03-13T10:38:14.069Z,1744
2017-03-13T10:39:27.754Z,1984
2017-03-13T10:40:40.888Z,2276
2017-03-13T10:41:54.583Z,2452
2017-03-13T10:43:07.735Z,2492
2017-03-13T10:44:21.451Z,2608
2017-03-13T10:45:34.579Z,2848
2017-03-13T10:46:48.307Z,3356
2017-03-13T10:48:02.047Z,3788
2017-03-13T10:49:15.764Z,4152
2017-03-13T10:50:28.892Z,4444
2017-03-13T10:51:41.612Z,4524
2017-03-13T10:52:55.295Z,4700
2017-03-13T10:54:09.009Z,4928
2017-03-13T10:55:22.752Z,5244
2017-03-13T10:56:35.883Z,5668
2017-03-13T10:57:49.005Z,6416
2017-03-13T10:59:02.724Z,7320
2017-03-13T11:00:15.833Z,8240
2017-03-13T11:01:29.695Z,8836
2017-03-13T11:02:43.399Z,8944
2017-03-13T11:03:57.121Z,8656
2017-03-13T11:05:10.836Z,8276
2017-03-13T11:06:24.529Z,8012
2017-03-13T11:07:38.306Z,7940
2017-03-13T11:08:52.034Z,8020
2017-03-13T11:10:05.854Z,8304
2017-03-13T11:11:19.633Z,8864
2017-03-13T11:12:32.775Z,9520
2017-03-13T11:13:45.866Z,10268
2017-03-13T11:14:59.563Z,10984
2017-03-13T11:16:12.668Z,11668
2017-03-13T11:17:26.405Z,12428
2017-03-13T11:18:40.098Z,13420
2017-03-13T11:19:53.804Z,14944
2017-03-13T11:21:07.334Z,16740
2017-03-13T11:22:21.008Z,18368
2017-03-13T11:23:34.166Z,19584
2017-03-13T11:24:47.872Z,20640
2017-03-13T11:26:01.570Z,22144
2017-03-13T11:27:14.720Z,23424
2017-03-13T11:28:28.413Z,23776
2017-03-13T11:29:42.126Z,24864
2017-03-13T11:30:55.284Z,26432
2017-03-13T11:32:09.007Z,27616
2017-03-13T11:33:22.144Z,28672
2017-03-13T11:34:35.827Z,29824
2017-03-13T11:35:48.939Z,31200
2017-03-13T11:37:02.646Z,30624
2017-03-13T11:38:15.748Z,30144
2017-03-13T11:39:29.468Z,30720
2017-03-13T11:40:43.208Z,32256
2017-03-13T11:41:56.898Z,34272
2017-03-13T11:43:10.619Z,36448
2017-03-13T11:44:24.327Z,37984
2017-03-13T11:45:38.106Z,38720
2017-03-13T11:46:51.211Z,38592
2017-03-13T11:48:04.333Z,38368
2017-03-13T11:49:18.107Z,38400
2017-03-13T11:50:31.213Z,38528
2017-03-13T11:51:44.958Z,39424
2017-03-13T11:52:58.720Z,42144
2017-03-13T11:54:12.470Z,44960
2017-03-13T11:55:26.182Z,48448
2017-03-13T11:56:39.877Z,57536
2017-03-13T11:57:53.557Z,62592
2017-03-13T11:59:07.240Z,46240
2017-03-13T12:00:20.346Z,43968
2017-03-13T12:01:34.088Z,54464
2017-03-13T12:02:47.820Z,47552
2017-03-13T12:04:01.528Z,48608
2017-03-13T12:05:15.233Z,48640
2017-03-13T12:06:28.991Z,50176
2017-03-13T12:07:42.115Z,53472
2017-03-13T12:08:55.837Z,65888
2017-03-13T12:10:08.960Z,68352
2017-03-13T12:11:22.082Z,73600
2017-03-13T12:12:35.215Z,72416
2017-03-13T12:13:48.942Z,67520
2017-03-13T12:15:02.686Z,77568
2017-03-13T12:16:15.796Z,64064
2017-03-13T12:17:28.348Z,67040
2017-03-13T12:18:42.088Z,81888
2017-03-13T12:19:55.189Z,88800
2017-03-13T12:21:09.036Z,95200
2017-03-13T12:22:22.155Z,97728
2017-03-13T12:23:35.281Z,100288
2017-03-13T12:24:49.020Z,96384
2017-03-13T12:26:01.548Z,67616
2017-03-13T12:27:15.338Z,76512
2017-03-13T12:28:29.029Z,78336
2017-03-13T12:29:42.748Z,92384
2017-03-13T12:30:56.466Z,94976
2017-03-13T12:32:09.578Z,103232
2017-03-13T12:33:23.269Z,102976
2017-03-13T12:34:35.781Z,108448
2017-03-13T12:35:49.545Z,95360
2017-03-13T12:37:03.300Z,97120
2017-03-13T12:38:16.427Z,93504
2017-03-13T12:39:29.542Z,80160
2017-03-13T12:40:41.466Z,72448
2017-03-13T12:41:54.571Z,73632
2017-03-13T12:43:06.495Z,86656
2017-03-13T12:44:20.206Z,81600
2017-03-13T12:45:33.325Z,78112
2017-03-13T12:46:46.459Z,76960
2017-03-13T12:48:00.175Z,86368
2017-03-13T12:49:13.895Z,92192
2017-03-13T12:50:27.629Z,84704
2017-03-13T12:55:20.600Z,66464
2017-03-13T12:56:34.340Z,58464
2017-03-13T12:57:48.065Z,58304
2017-03-13T12:59:01.784Z,52928
2017-03-13T13:00:15.509Z,52224
2017-03-13T13:01:29.169Z,53696
2017-03-13T13:02:42.255Z,57568
2017-03-13T13:03:55.917Z,65184
2017-03-13T13:05:08.982Z,67712
2017-03-13T13:06:21.479Z,67456
2017-03-13T13:07:35.713Z,65152
2017-03-13T13:08:48.905Z,64608
2017-03-13T13:10:02.016Z,68128
2017-03-13T13:11:15.677Z,75008
2017-03-13T13:12:29.351Z,95264
2017-03-13T13:13:43.020Z,87072
2017-03-13T13:14:56.723Z,66816
2017-03-13T13:16:10.468Z,56960
2017-03-13T13:17:24.168Z,55584
2017-03-13T13:18:37.269Z,62592
2017-03-13T13:19:50.941Z,99648
2017-03-13T13:21:04.610Z,98720
2017-03-13T13:22:18.276Z,94016
2017-03-13T13:23:31.361Z,65440
2017-03-13T13:24:45.022Z,60960
2017-03-13T13:25:58.107Z,63360
2017-03-13T13:27:11.811Z,84608
2017-03-13T13:28:25.517Z,75744
2017-03-13T13:29:38.584Z,68448
2017-03-13T13:30:52.261Z,66656
2017-03-13T13:32:05.997Z,71712
2017-03-13T13:33:19.105Z,60416
2017-03-13T13:34:32.829Z,57184
2017-03-13T13:35:45.926Z,56896
2017-03-13T13:36:59.054Z,59936
2017-03-13T13:38:12.735Z,61728
2017-03-13T13:39:26.411Z,69184
2017-03-13T13:40:40.205Z,71808
2017-03-13T13:41:53.885Z,114144
2017-03-13T13:43:07.613Z,104032
2017-03-13T13:44:20.705Z,73184
2017-03-13T13:45:34.409Z,66624
2017-03-13T13:46:48.105Z,61664
2017-03-13T13:48:01.763Z,52736
2017-03-13T13:49:14.266Z,44224
2017-03-13T13:50:27.966Z,42080
2017-03-13T13:51:41.823Z,41952
2017-03-13T13:52:55.626Z,42112
2017-03-13T13:54:09.326Z,43616
2017-03-13T13:55:22.409Z,46848
2017-03-13T13:56:35.508Z,48256
2017-03-13T13:57:49.210Z,45728
2017-03-13T13:59:02.914Z,42720
2017-03-13T14:00:15.980Z,41024
2017-03-13T14:01:29.676Z,40512
2017-03-13T14:02:43.351Z,41024
2017-03-13T14:03:56.432Z,43328
2017-03-13T14:05:08.950Z,51712
2017-03-13T14:06:22.039Z,45984
2017-03-13T14:07:34.521Z,44896
2017-03-13T14:08:46.984Z,43840
2017-03-13T14:10:00.644Z,43776
2017-03-13T14:11:14.326Z,44832
2017-03-13T14:12:28.006Z,47840
2017-03-13T14:13:41.189Z,52800
2017-03-13T14:14:54.859Z,61152
2017-03-13T14:16:07.965Z,70656
2017-03-13T14:17:21.631Z,75296
2017-03-13T14:18:35.324Z,81696
2017-03-13T14:19:49.025Z,92320
2017-03-13T14:21:02.712Z,82368
2017-03-13T14:22:15.206Z,74848
2017-03-13T14:23:28.927Z,62176
2017-03-13T14:24:42.607Z,54464
2017-03-13T14:25:56.299Z,51968
2017-03-13T14:27:10.068Z,51936
2017-03-13T14:28:23.171Z,53120
2017-03-13T14:29:36.842Z,54944
2017-03-13T14:30:49.911Z,56480
2017-03-13T14:32:02.976Z,54880
2017-03-13T14:33:16.701Z,50272
2017-03-13T14:34:29.778Z,44608
2017-03-13T14:35:43.469Z,39808
2017-03-13T14:36:56.555Z,36128
2017-03-13T14:38:09.629Z,33216
2017-03-13T14:39:22.696Z,30688
2017-03-13T14:40:35.767Z,28096
2017-03-13T14:41:48.839Z,25952
2017-03-13T14:43:01.889Z,24192
2017-03-13T14:44:15.561Z,23040
2017-03-13T14:45:29.249Z,22240
2017-03-13T14:46:42.315Z,21600
2017-03-13T14:47:55.385Z,21120
2017-03-13T14:49:09.096Z,20384
2017-03-13T14:50:22.186Z,18784
2017-03-13T14:51:35.263Z,16580
2017-03-13T14:52:48.942Z,14844
2017-03-13T14:54:02.014Z,13960
2017-03-13T14:55:14.488Z,13868
2017-03-13T14:56:28.191Z,14096
2017-03-13T14:57:41.880Z,14220
2017-03-13T14:58:54.961Z,14116
2017-03-13T15:00:08.611Z,13836
2017-03-13T15:01:22.280Z,13868
2017-03-13T15:02:35.359Z,14380
2017-03-13T15:03:48.429Z,15044
2017-03-13T15:05:02.105Z,15644
2017-03-13T15:06:15.798Z,16148
2017-03-13T15:07:28.894Z,16576
2017-03-13T15:08:42.555Z,17212
2017-03-13T15:09:55.633Z,17604
2017-03-13T15:11:09.345Z,17040
2017-03-13T15:12:23.025Z,16220
2017-03-13T15:13:36.126Z,15824
2017-03-13T15:14:49.831Z,15740
2017-03-13T15:16:03.517Z,15856
2017-03-13T15:17:16.597Z,15528
2017-03-13T15:18:30.270Z,15172
2017-03-13T15:19:43.922Z,14988
2017-03-13T15:20:57.631Z,15012
2017-03-13T15:22:11.382Z,15276
2017-03-13T15:23:25.065Z,15640
2017-03-13T15:24:38.745Z,15888
2017-03-13T15:25:52.393Z,15840
2017-03-13T15:27:06.072Z,15572
2017-03-13T15:28:19.756Z,15496
2017-03-13T15:29:33.453Z,15864
2017-03-13T15:30:47.105Z,16428
2017-03-13T15:32:00.753Z,17048
2017-03-13T15:33:14.105Z,18528
2017-03-13T15:34:27.850Z,21152
2017-03-13T15:35:41.525Z,24800
2017-03-13T15:36:55.205Z,28192
2017-03-13T15:38:08.880Z,30176
2017-03-13T15:39:22.578Z,31072
2017-03-13T15:40:35.711Z,31328
2017-03-13T15:41:49.370Z,31008
2017-03-13T15:43:02.458Z,29632
2017-03-13T15:44:16.155Z,27680
2017-03-13T15:45:28.042Z,25952
2017-03-13T15:46:41.735Z,24704
2017-03-13T15:47:55.424Z,23968
2017-03-13T15:49:09.142Z,23712
2017-03-13T15:50:22.873Z,23936
2017-03-13T15:51:35.347Z,24512
2017-03-13T15:52:48.408Z,25248
2017-03-13T15:54:02.080Z,25632
2017-03-13T15:55:15.770Z,26080
2017-03-13T15:56:29.449Z,26848
2017-03-13T15:57:43.137Z,28192
2017-03-13T15:58:56.205Z,30240
2017-03-13T16:00:09.881Z,32928
2017-03-13T16:01:22.929Z,35424
2017-03-13T16:02:36.018Z,38208
2017-03-13T16:03:49.715Z,41856
2017-03-13T16:05:03.389Z,45824
2017-03-13T16:06:16.741Z,51072
2017-03-13T16:07:29.985Z,59360
2017-03-13T16:08:43.048Z,66176
2017-03-13T16:09:56.752Z,68960
2017-03-13T16:11:10.426Z,72992
2017-03-13T16:12:24.119Z,76608
2017-03-13T16:13:37.196Z,104704
2017-03-13T16:14:50.856Z,83872
2017-03-13T16:16:04.572Z,79904
2017-03-13T16:17:18.280Z,78720
2017-03-13T16:18:31.352Z,92704
2017-03-13T16:19:44.411Z,86688
2017-03-13T16:20:58.073Z,109920
2017-03-13T16:22:11.769Z,118176
2017-03-13T16:23:25.452Z,132512
2017-03-13T16:24:39.125Z,118432
2017-03-13T16:25:52.185Z,132256
2017-03-13T16:27:05.862Z,128288
2017-03-13T16:28:19.514Z,124864
2017-03-13T16:29:33.192Z,113760
2017-03-13T16:30:46.887Z,86112
2017-03-13T16:32:00.554Z,84416
2017-03-13T16:33:13.647Z,71680
2017-03-13T16:34:27.355Z,65536
2017-03-13T16:35:40.455Z,65920
2017-03-13T16:36:53.556Z,107040
2017-03-13T16:38:06.653Z,81088
2017-03-13T16:39:20.333Z,68832
2017-03-13T16:40:34.040Z,56768
2017-03-13T16:41:47.711Z,53600
2017-03-13T16:43:01.398Z,63072
2017-03-13T16:44:15.074Z,58432
2017-03-13T16:45:28.821Z,61536
2017-03-13T16:46:42.513Z,68576
2017-03-13T16:47:55.597Z,67904
2017-03-13T16:49:09.277Z,59456
2017-03-13T16:50:22.984Z,55904
2017-03-13T16:51:36.047Z,62720
2017-03-13T16:52:49.749Z,77184
2017-03-13T16:54:02.849Z,94688
2017-03-13T16:55:15.982Z,75680
2017-03-13T16:56:29.665Z,58432
2017-03-13T16:57:42.744Z,51360
2017-03-13T16:58:55.816Z,47968
2017-03-13T17:00:08.318Z,45984
2017-03-13T17:01:22.011Z,44096
2017-03-13T17:02:34.488Z,42656
2017-03-13T17:03:47.581Z,41664
2017-03-13T17:05:01.271Z,42304
2017-03-13T17:06:14.372Z,45248
2017-03-13T17:07:28.074Z,49600